INDIANA  -  Freeze Warning Freeze Warning  
 JEFFERSON  -  Freeze Warning Freeze Warning  

Active alerts

Jefferson
  Details for Jefferson Freeze Warning
Indiana
  Details for Indiana Freeze Warning

Amazon Weather

Hours of Daylight

11 hrs 1 min 17 sec
of Daylight Today
graph 45.9% Day 54.1% Night Which is
2 min 37 sec Shorter
Than Yesterday

South Webcam more information South Webcam


South West Webcam more information South West Webcam


You find our weather info also at:

UK Metoffice

Weather Underground

Mid-Atlantic Weather Network

WeatherlinkIP

Citizen Weather Observer Program (CWOP)

HAMweather, WeatherForYou, PWS Weather



Nearby METAR Reports

   
KDUJ - Du Bois, Pennsylvania, USA
Distance from station: NNE 16 mi
Updated: Oct 17 2018 3:53 pm
Overcast  
Overcast  
   Wind: West 13.8 mph<br />Gust to 13.8 mph
Wind: West 13.8 mph
Gust to 13.8 mph
Temperature: 42.8°F
Wind Chill: 35.6°F
Dew Point: 35.6°F
Humidity: 76%
Barometer: 30.04 inHg
Clouds: Overcast
Visibility: 10 mi
Cloud details: Few Clouds 2600 ft,
Mostly Cloudy 5000 ft,
Overcast 6000 ft
KDUJ 171953Z AUTO 26012G23KT 10SM FEW026 BKN050 OVC060 06/02 A3004 RMK AO2 SLP183 T00610022
KIDI - Indiana/Stewart, Pennsylvania, USA
Distance from station: SSW 23 mi
Updated: Oct 17 2018 4:15 pm
Overcast  
Overcast  
   Wind: NW 9.2 mph<br />Gust to 9.2 mph
Wind: NW 9.2 mph
Gust to 9.2 mph
Temperature: 50°F
Wind Chill: 46.4°F
Dew Point: 37.4°F
Humidity: 62%
Barometer: 30.1 inHg
Clouds: Overcast
Visibility: 10 mi
Cloud details: Few Clouds 5000 ft,
Few Clouds 6000 ft,
Overcast 7500 ft
KIDI 172015Z AUTO 31008G16KT 250V340 10SM FEW050 FEW060 OVC075 10/03 A3010 RMK A01
KFIG - Clearfield, Pennsylvania, USA
Distance from station: ENE 31 mi
Updated: Oct 17 2018 3:54 pm
Light Rain, Overcast  
Light Rain, Overcast  
   Wind: West 12.7 mph<br />Gust to 12.7 mph
Wind: West 12.7 mph
Gust to 12.7 mph
Temperature: 46.4°F
Wind Chill: 41°F
Dew Point: 35.6°F
Humidity: 66%
Barometer: 30.04 inHg
Clouds: Overcast
Visibility: 10 mi
Cloud details: Overcast 6000 ft
KFIG 171954Z AUTO 28011G22KT 10SM -RA OVC060 08/02 A3004 RMK AO2 RAB06 SLP181 P0000 T00830022
KJST - Johnstown, Pennsylvania, USA
Distance from station: S 44 mi
Updated: Oct 17 2018 3:54 pm
Overcast  
Overcast  
   Wind: WNW 19.6 mph<br />Gust to 19.6 mph
Wind: WNW 19.6 mph
Gust to 19.6 mph
Temperature: 48.2°F
Wind Chill: 41°F
Dew Point: 33.8°F
Humidity: 58%
Barometer: 30.04 inHg
Clouds: Overcast
Visibility: 10 mi
Cloud details: Few Clouds 4400 ft,
Mostly Cloudy 6000 ft,
Overcast 7000 ft
KJST 171954Z AUTO 29017G26KT 10SM FEW044 BKN060 OVC070 09/01 A3004 RMK AO2 PK WND 29033/1917 SLP183 T00940006
KPIT - Pittsburgh, Pennsylvania, USA
Distance from station: WSW 74 mi
Updated: Oct 17 2018 3:51 pm
Mostly Cloudy  
Mostly Cloudy  
   Wind: WNW 16.1 mph
Wind: WNW 16.1 mph
Temperature: 53.6°F
Dew Point: 33.8°F
Humidity: 47%
Barometer: 30.09 inHg
Clouds: Mostly Cloudy
Visibility: 10 mi
Cloud details: Mostly Cloudy 5500 ft,
Mostly Cloudy 7000 ft
KPIT 171951Z 30014KT 10SM BKN055 BKN070 12/01 A3009 RMK AO2 PK WND 29028/1903 SLP202 T01170011
KLBE - Latrobe/Westmorl, Pennsylvania, USA
Distance from station: SSW 52 mi
Updated: Oct 17 2018 3:50 pm
Mostly Cloudy  
Mostly Cloudy  
   Wind: West 20.7 mph
Wind: West 20.7 mph
Temperature: 53.6°F
Dew Point: 33.8°F
Humidity: 47%
Barometer: 30.08 inHg
Clouds: Mostly Cloudy
Visibility: 10 mi
Cloud details: Mostly Cloudy 5000 ft
KLBE 171950Z 28018KT 10SM BKN050 12/01 A3008
KBTP - Butler Co., Pennsylvania, USA
Distance from station: WSW 52 mi
Updated: Oct 17 2018 3:56 pm
Mostly Cloudy  
Mostly Cloudy  
   Wind: WNW 9.2 mph<br />Gust to 9.2 mph
Wind: WNW 9.2 mph
Gust to 9.2 mph
Temperature: 51.8°F
Dew Point: 35.6°F
Humidity: 54%
Barometer: 30.09 inHg
Clouds: Mostly Cloudy
Visibility: 10 mi
Cloud details: Mostly Cloudy 8000 ft
KBTP 171956Z AUTO 29008G16KT 10SM BKN080 11/02 A3009 RMK AO2 SLP202 T01060022
KUCP - New Castle Muni, Pennsylvania, USA
Distance from station: W 75 mi
Updated: Oct 17 2018 3:56 pm
Overcast  
Overcast  
   Wind: West 15 mph<br />Gust to 15 mph
Wind: West 15 mph
Gust to 15 mph
Temperature: 50°F
Wind Chill: 44.6°F
Dew Point: 35.6°F
Humidity: 58%
Barometer: 30.11 inHg
Clouds: Overcast
Visibility: 10 mi
Cloud details: Few Clouds 4400 ft,
Mostly Cloudy 5500 ft,
Overcast 8000 ft
KUCP 171956Z AUTO 28013G19KT 10SM FEW044 BKN055 OVC080 10/02 A3011 RMK AO2 SLP218 T01000022
KFKL - Franklin, Pennsylvania, USA
Distance from station: WNW 54 mi
Updated: Oct 17 2018 3:56 pm
Light Rain, Mostly Cloudy  
Light Rain, Mostly Cloudy  
   Wind: West 10.4 mph
Wind: West 10.4 mph
Temperature: 44.6°F
Wind Chill: 39.2°F
Dew Point: 42.8°F
Humidity: 93%
Barometer: 30.08 inHg
Clouds: Mostly Cloudy
Visibility: 10 mi
Cloud details: Few Clouds 1500 ft,
Partly Cloudy 2900 ft,
Mostly Cloudy 3400 ft
KFKL 171956Z AUTO 26009KT 10SM -RA FEW015 SCT029 BKN034 07/06 A3008 RMK AO2 SLP197 P0000 T00670056
KAOO - Altoona, Pennsylvania, USA
Distance from station: SE 57 mi
Updated: Oct 17 2018 3:53 pm
Overcast  
Overcast  
   Wind: WNW 18.4 mph<br />Gust to 18.4 mph
Wind: WNW 18.4 mph
Gust to 18.4 mph
Temperature: 55.4°F
Dew Point: 33.8°F
Humidity: 44%
Barometer: 30.03 inHg
Clouds: Overcast
Visibility: 10 mi
Cloud details: Mostly Cloudy 6000 ft,
Overcast 7000 ft
KAOO 171953Z AUTO 30016G25KT 10SM BKN060 OVC070 13/01 A3003 RMK AO2 PK WND 30032/1925 SLP174 T01280011 PWINO $
KUNV - State College, Pennsylvania, USA
Distance from station: E 61 mi
Updated: Oct 17 2018 3:53 pm
Mostly Cloudy  
Mostly Cloudy  
   Wind: WNW 18.4 mph<br />Gust to 18.4 mph
Wind: WNW 18.4 mph
Gust to 18.4 mph
Temperature: 50°F
Wind Chill: 44.6°F
Dew Point: 35.6°F
Humidity: 58%
Barometer: 30.02 inHg
Clouds: Mostly Cloudy
Visibility: 10 mi
Cloud details: Partly Cloudy 5500 ft,
Mostly Cloudy 7000 ft
KUNV 171953Z 29016G31KT 10SM SCT055 BKN070 10/02 A3002
KBFD - Bradford, Pennsylvania, USA
Distance from station: NNE 62 mi
Updated: Oct 17 2018 4:20 pm
Mostly Cloudy  
Mostly Cloudy  
   Wind: WNW 12.7 mph
Wind: WNW 12.7 mph
Temperature: 39.2°F
Wind Chill: 32°F
Dew Point: 35.6°F
Humidity: 87%
Barometer: 30.02 inHg
Clouds: Mostly Cloudy
Visibility: 10 mi
Cloud details: Few Clouds 1700 ft,
Partly Cloudy 3000 ft,
Mostly Cloudy 4600 ft
KBFD 172020Z AUTO 29011KT 10SM FEW017 SCT030 BKN046 04/02 A3002 RMK AO2 RAE09 P0001 T00390022

Script developed by  Saratoga-weather.org Adapted for the template by  Weerstation Leuven

Equipment we use:

Weather-station
Davis VP2

Weather-program
Cumulus

Weather-server
Dell Inspiron 3521

Provider
Host On A Rope

Davis VP2

Cumulus

Dell Inspiron 3521

Host On A Rope